createdAt,value
2022-12-03T00:01:13.826Z,101746.13
2022-12-03T00:03:40.992Z,101751.91
2022-12-03T00:06:08.068Z,101750.69
2022-12-03T00:08:35.057Z,101760.19
2022-12-03T00:11:01.880Z,101758.16
2022-12-03T00:13:28.772Z,101769.88
2022-12-03T00:15:55.682Z,101765.09
2022-12-03T00:18:22.508Z,101755.91
2022-12-03T00:20:49.384Z,101759.81
2022-12-03T00:23:16.224Z,101758.34
2022-12-03T00:25:43.149Z,101767.72
2022-12-03T00:28:10.248Z,101765.59
2022-12-03T00:30:37.137Z,101771.50
2022-12-03T00:33:04.167Z,101765.28
2022-12-03T00:35:31.067Z,101773.97
2022-12-03T00:37:57.883Z,101779.47
2022-12-03T00:40:24.811Z,101777.25
2022-12-03T00:42:51.624Z,101768.00
2022-12-03T00:45:18.475Z,101772.63
2022-12-03T00:47:45.299Z,101779.75
2022-12-03T00:50:12.352Z,101777.63
2022-12-03T00:52:39.161Z,101769.69
2022-12-03T00:55:06.418Z,101772.66
2022-12-03T00:57:33.239Z,101777.75
2022-12-03T01:00:00.163Z,101775.75
2022-12-03T01:02:27.032Z,101773.84
2022-12-03T01:04:57.380Z,101770.84
2022-12-03T01:07:24.401Z,101776.63
2022-12-03T01:09:51.336Z,101772.78
2022-12-03T01:12:18.311Z,101765.72
2022-12-03T01:14:45.190Z,101761.97
2022-12-03T01:17:12.594Z,101772.34
2022-12-03T01:19:46.511Z,101771.28
2022-12-03T01:22:15.054Z,101774.19
2022-12-03T01:24:41.950Z,101775.00
2022-12-03T01:27:08.911Z,101775.84
2022-12-03T01:29:35.807Z,101780.69
2022-12-03T01:32:17.575Z,101778.56
2022-12-03T01:34:48.803Z,101783.53
2022-12-03T01:37:16.811Z,101779.03
2022-12-03T01:39:43.842Z,101775.91
2022-12-03T01:42:25.935Z,101772.47
2022-12-03T01:44:56.838Z,101777.97
2022-12-03T01:47:33.806Z,101780.19
2022-12-03T01:50:05.671Z,101770.06
2022-12-03T01:52:36.747Z,101765.09
2022-12-03T01:55:07.406Z,101767.44
2022-12-03T01:57:43.692Z,101771.03
2022-12-03T02:00:20.000Z,101760.31
2022-12-03T02:02:53.579Z,101771.84
2022-12-03T02:05:23.608Z,101776.31
2022-12-03T02:07:51.779Z,101779.69
2022-12-03T02:10:23.424Z,101780.75
2022-12-03T02:13:16.399Z,101777.88
2022-12-03T02:15:43.349Z,101780.19
2022-12-03T02:18:10.482Z,101784.34
2022-12-03T02:20:46.570Z,101787.75
2022-12-03T02:23:26.286Z,101786.16
2022-12-03T02:25:53.184Z,101780.91
2022-12-03T02:28:20.040Z,101777.00
2022-12-03T02:30:46.907Z,101787.75
2022-12-03T02:33:13.787Z,101790.53
2022-12-03T02:35:40.881Z,101787.56
2022-12-03T02:38:26.230Z,101785.81
2022-12-03T02:40:56.852Z,101786.09
2022-12-03T02:43:24.170Z,101802.69
2022-12-03T02:45:54.587Z,101790.38
2022-12-03T02:48:26.051Z,101792.72
2022-12-03T02:50:59.755Z,101785.59
2022-12-03T02:53:33.421Z,101787.72
2022-12-03T02:56:02.699Z,101790.31
2022-12-03T02:58:32.770Z,101790.38
2022-12-03T03:01:01.371Z,101791.13
2022-12-03T03:03:29.883Z,101784.44
2022-12-03T03:26:20.078Z,101806.31
2022-12-03T03:28:51.045Z,101809.97
2022-12-03T03:31:23.034Z,101815.28
2022-12-03T03:33:50.508Z,101808.97
2022-12-03T03:36:17.888Z,101816.03
2022-12-03T03:38:44.904Z,101807.13
2022-12-03T03:41:13.939Z,101809.38
2022-12-03T03:43:43.150Z,101824.69
2022-12-03T03:46:11.257Z,101821.13
2022-12-03T03:48:40.487Z,101819.81
2022-12-03T03:51:09.051Z,101824.09
2022-12-03T03:53:40.416Z,101828.28
2022-12-03T03:56:08.551Z,101826.72
2022-12-03T03:58:36.011Z,101831.44
2022-12-03T04:01:02.902Z,101834.03
2022-12-03T04:03:30.021Z,101835.38
2022-12-03T04:05:56.896Z,101828.38
2022-12-03T04:08:28.330Z,101839.88
2022-12-03T04:11:13.930Z,101835.34
2022-12-03T04:13:40.854Z,101844.81
2022-12-03T04:16:08.012Z,101850.88
2022-12-03T04:18:43.715Z,101846.16
2022-12-03T04:21:34.576Z,101857.78
2022-12-03T04:24:01.841Z,101855.06
2022-12-03T04:26:47.749Z,101850.81
2022-12-03T04:29:17.958Z,101851.06
2022-12-03T04:32:03.597Z,101863.63
2022-12-03T04:34:48.917Z,101858.38
2022-12-03T04:37:15.910Z,101863.75
2022-12-03T04:39:42.878Z,101866.72
2022-12-03T04:42:09.747Z,101864.69
2022-12-03T04:44:36.692Z,101861.59
2022-12-03T04:47:13.495Z,101869.44
2022-12-03T04:49:45.764Z,101874.28
2022-12-03T04:52:14.676Z,101867.91
2022-12-03T04:54:42.216Z,101868.47
2022-12-03T04:57:10.212Z,101863.63
2022-12-03T04:59:38.137Z,101866.59
2022-12-03T05:02:06.195Z,101873.00
2022-12-03T05:04:33.263Z,101875.72
2022-12-03T05:07:00.210Z,101874.75
2022-12-03T05:09:27.079Z,101876.03
2022-12-03T05:11:54.030Z,101879.00
2022-12-03T05:14:22.034Z,101881.03
2022-12-03T05:16:48.928Z,101881.03
2022-12-03T05:19:15.822Z,101878.09
2022-12-03T05:21:42.705Z,101886.38
2022-12-03T05:24:09.549Z,101889.09
2022-12-03T05:26:36.473Z,101884.84
2022-12-03T05:29:03.800Z,101887.69
2022-12-03T05:31:30.755Z,101891.25
2022-12-03T05:33:57.712Z,101890.53
2022-12-03T05:36:25.740Z,101895.00
2022-12-03T05:38:52.706Z,101893.34
2022-12-03T05:41:38.288Z,101903.19
2022-12-03T05:44:05.172Z,101904.25
2022-12-03T05:46:33.096Z,101904.84
2022-12-03T05:49:00.068Z,101917.28
2022-12-03T05:51:27.152Z,101923.13
2022-12-03T05:53:53.972Z,101916.13
2022-12-03T05:56:20.870Z,101923.78
2022-12-03T05:58:47.719Z,101931.03
2022-12-03T06:01:14.621Z,101920.09
2022-12-03T06:03:41.573Z,101936.09
2022-12-03T06:06:08.499Z,101932.13
2022-12-03T06:08:35.350Z,101931.94
2022-12-03T06:11:02.286Z,101933.84
2022-12-03T06:13:29.120Z,101938.13
2022-12-03T06:15:55.956Z,101936.09
2022-12-03T06:18:22.810Z,101934.94
2022-12-03T06:20:49.686Z,101940.97
2022-12-03T06:23:16.622Z,101942.22
2022-12-03T06:25:43.464Z,101945.63
2022-12-03T06:28:10.370Z,101942.81
2022-12-03T06:30:37.231Z,101941.25
2022-12-03T06:33:04.170Z,101940.34
2022-12-03T06:35:30.955Z,101939.38
2022-12-03T06:37:58.041Z,101938.91
2022-12-03T06:40:25.237Z,101938.84
2022-12-03T06:42:52.391Z,101935.13
2022-12-03T06:45:19.258Z,101935.06
2022-12-03T06:47:46.111Z,101937.91
2022-12-03T06:50:13.934Z,101943.81
2022-12-03T06:52:40.824Z,101943.59
2022-12-03T06:55:08.112Z,101947.88
2022-12-03T06:57:34.992Z,101934.81
2022-12-03T07:00:03.557Z,101941.44
2022-12-03T07:02:30.583Z,101932.75
2022-12-03T07:04:57.923Z,101944.03
2022-12-03T07:07:25.060Z,101934.50
2022-12-03T07:09:52.056Z,101935.91
2022-12-03T07:12:19.036Z,101938.06
2022-12-03T07:14:45.870Z,101934.25
2022-12-03T07:17:12.715Z,101939.63
2022-12-03T07:19:39.795Z,101938.22
2022-12-03T07:22:06.771Z,101940.84
2022-12-03T07:24:33.819Z,101935.31
2022-12-03T07:27:00.725Z,101948.56
2022-12-03T07:29:27.581Z,101948.78
2022-12-03T07:31:54.565Z,101950.41
2022-12-03T07:34:21.692Z,101948.50
2022-12-03T07:36:48.530Z,101951.50
2022-12-03T07:39:15.475Z,101948.03
2022-12-03T07:41:42.395Z,101946.47
2022-12-03T07:44:14.027Z,101949.34
2022-12-03T07:46:41.607Z,101962.75
2022-12-03T07:49:08.765Z,101960.34
2022-12-03T07:51:35.558Z,101960.34
2022-12-03T07:54:02.468Z,101962.75
2022-12-03T07:56:29.377Z,101970.31
2022-12-03T07:58:56.546Z,101967.91
2022-12-03T08:01:23.515Z,101958.78
2022-12-03T08:03:50.509Z,101966.94
2022-12-03T08:06:17.363Z,101970.31
2022-12-03T08:08:44.270Z,101975.16
2022-12-03T08:11:14.321Z,101966.69
2022-12-03T08:13:41.253Z,101961.56
2022-12-03T08:16:21.127Z,101969.03
2022-12-03T08:18:49.867Z,101964.59
2022-12-03T08:21:19.516Z,101974.69
2022-12-03T08:23:46.504Z,101968.91
2022-12-03T08:26:22.689Z,101974.22
2022-12-03T08:28:50.184Z,101972.69
2022-12-03T08:31:28.020Z,101979.44
2022-12-03T08:34:14.998Z,101980.97
2022-12-03T08:36:41.970Z,101973.78
2022-12-03T08:39:30.756Z,101971.53
2022-12-03T08:42:24.671Z,101960.28
2022-12-03T08:44:52.826Z,101970.09
2022-12-03T08:47:21.983Z,101964.78
2022-12-03T08:50:01.335Z,101964.41
2022-12-03T08:52:33.331Z,101969.44
2022-12-03T08:55:11.028Z,101961.31
2022-12-03T08:57:37.913Z,101958.00
2022-12-03T09:00:23.883Z,101957.47
2022-12-03T09:02:55.614Z,101951.31
2022-12-03T09:05:26.456Z,101946.38
2022-12-03T09:07:53.486Z,101948.41
2022-12-03T09:10:20.494Z,101948.53
2022-12-03T09:12:47.444Z,101949.13
2022-12-03T09:15:15.453Z,101952.31
2022-12-03T09:17:42.333Z,101944.09
2022-12-03T09:20:09.860Z,101952.94
2022-12-03T09:22:36.813Z,101955.31
2022-12-03T09:25:04.106Z,101957.56
2022-12-03T09:27:31.114Z,101956.75
2022-12-03T09:29:58.160Z,101966.97
2022-12-03T09:32:25.376Z,101963.47
2022-12-03T09:34:52.746Z,101958.38
2022-12-03T09:37:22.425Z,101954.22
2022-12-03T09:39:49.347Z,101956.78
2022-12-03T09:42:16.503Z,101951.03
2022-12-03T09:44:44.257Z,101949.44
2022-12-03T09:47:11.364Z,101951.59
2022-12-03T09:49:40.870Z,101947.19
2022-12-03T09:52:08.286Z,101942.03
2022-12-03T09:54:35.531Z,101937.41
2022-12-03T09:57:04.350Z,101945.06
2022-12-03T09:59:35.267Z,101947.88
2022-12-03T10:02:02.803Z,101941.41
2022-12-03T10:04:30.208Z,101936.81
2022-12-03T10:06:59.068Z,101935.81
2022-12-03T10:09:28.623Z,101927.88
2022-12-03T10:11:59.993Z,101939.38
2022-12-03T10:14:27.890Z,101936.63
2022-12-03T10:16:55.424Z,101929.78
2022-12-03T10:19:28.347Z,101932.16
2022-12-03T10:21:55.876Z,101936.19
2022-12-03T10:24:26.082Z,101931.03
2022-12-03T10:26:58.191Z,101924.75
2022-12-03T10:29:33.271Z,101935.16
2022-12-03T10:32:02.625Z,101927.22
2022-12-03T10:34:35.337Z,101937.59
2022-12-03T10:37:22.748Z,101923.66
2022-12-03T10:40:08.248Z,101929.69
2022-12-03T10:42:37.950Z,101922.53
2022-12-03T10:45:23.083Z,101916.16
2022-12-03T10:48:06.583Z,101925.56
2022-12-03T10:50:35.172Z,101925.22
2022-12-03T10:53:02.382Z,101921.13
2022-12-03T10:55:38.772Z,101920.38
2022-12-03T10:58:05.932Z,101921.31
2022-12-03T11:00:32.791Z,101919.94
2022-12-03T11:02:59.674Z,101921.00
2022-12-03T11:05:27.603Z,101915.75
2022-12-03T11:07:55.020Z,101912.31
2022-12-03T11:10:22.263Z,101914.25
2022-12-03T11:13:31.467Z,101913.88
2022-12-03T11:15:59.576Z,101910.69
2022-12-03T11:18:38.955Z,101913.75
2022-12-03T11:21:07.223Z,101916.47
2022-12-03T11:23:46.476Z,101915.63
2022-12-03T11:26:19.294Z,101920.34
2022-12-03T11:28:46.531Z,101922.72
2022-12-03T11:31:35.753Z,101914.44
2022-12-03T11:34:29.420Z,101912.22
2022-12-03T11:37:11.430Z,101916.91
2022-12-03T11:39:56.894Z,101915.22
2022-12-03T11:42:26.985Z,101904.38
2022-12-03T11:45:05.720Z,101899.06
2022-12-03T11:47:34.409Z,101905.88
2022-12-03T11:50:01.655Z,101909.63
2022-12-03T11:52:32.616Z,101908.03
2022-12-03T11:55:18.100Z,101912.13
2022-12-03T11:57:45.795Z,101910.66
2022-12-03T12:00:18.496Z,101915.78
2022-12-03T12:02:46.097Z,101909.94
2022-12-03T12:05:33.453Z,101907.19
2022-12-03T12:08:02.219Z,101918.34
2022-12-03T12:10:43.043Z,101908.34
2022-12-03T12:13:33.940Z,101901.66
2022-12-03T12:16:06.046Z,101903.44
2022-12-03T12:18:46.729Z,101907.03
2022-12-03T12:21:38.437Z,101900.88
2022-12-03T12:24:30.120Z,101906.13
2022-12-03T12:27:01.856Z,101898.78
2022-12-03T12:29:29.062Z,101906.53
2022-12-03T12:32:13.109Z,101907.88
2022-12-03T12:34:43.095Z,101916.78
2022-12-03T12:37:21.327Z,101910.09
2022-12-03T12:39:49.143Z,101914.44
2022-12-03T12:42:53.259Z,101914.44
2022-12-03T12:45:25.784Z,101917.50
2022-12-03T12:48:10.279Z,101919.25
2022-12-03T12:50:38.833Z,101909.59
2022-12-03T12:53:12.508Z,101920.50
2022-12-03T12:55:40.165Z,101921.81
2022-12-03T12:58:19.075Z,101920.56
2022-12-03T13:00:55.265Z,101927.75
2022-12-03T13:03:25.651Z,101921.47
2022-12-03T13:05:54.117Z,101924.38
2022-12-03T13:08:25.739Z,101929.44
2022-12-03T13:10:55.230Z,101942.72
2022-12-03T13:13:29.886Z,101938.69
2022-12-03T13:16:01.225Z,101940.34
2022-12-03T13:18:33.643Z,101945.16
2022-12-03T13:21:21.658Z,101943.25
2022-12-03T13:23:52.187Z,101946.63
2022-12-03T13:26:40.020Z,101942.03
2022-12-03T13:29:18.491Z,101947.72
2022-12-03T13:31:52.313Z,101945.81
2022-12-03T13:34:22.450Z,101938.66
2022-12-03T13:36:55.369Z,101946.81
2022-12-03T13:39:35.185Z,101944.75
2022-12-03T13:42:26.781Z,101956.28
2022-12-03T13:44:53.917Z,101952.94
2022-12-03T13:47:22.993Z,101949.44
2022-12-03T13:49:56.003Z,101958.19
2022-12-03T13:52:25.727Z,101957.63
2022-12-03T13:54:55.590Z,101961.56
2022-12-03T13:57:23.165Z,101959.91
2022-12-03T13:59:50.233Z,101954.97
2022-12-03T14:02:17.317Z,101957.78
2022-12-03T14:04:44.246Z,101959.34
2022-12-03T14:07:11.161Z,101955.47
2022-12-03T14:09:37.962Z,101955.97
2022-12-03T14:12:23.418Z,101956.72
2022-12-03T14:14:50.199Z,101957.88
2022-12-03T14:17:17.245Z,101959.97
2022-12-03T14:19:44.790Z,101967.91
2022-12-03T14:22:11.986Z,101966.50
2022-12-03T14:24:42.543Z,101971.31
2022-12-03T14:27:09.433Z,101969.75
2022-12-03T14:29:36.341Z,101972.38
2022-12-03T14:32:03.269Z,101968.31
2022-12-03T14:34:30.652Z,101973.19
2022-12-03T14:36:57.587Z,101979.25
2022-12-03T14:39:25.376Z,101983.06
2022-12-03T14:42:10.863Z,101985.69
2022-12-03T14:44:37.683Z,101980.84
2022-12-03T14:47:04.559Z,101987.50
2022-12-03T14:49:31.690Z,101991.81
2022-12-03T14:51:59.494Z,101999.31
2022-12-03T14:54:29.299Z,101995.66
2022-12-03T14:56:56.433Z,101998.44
2022-12-03T14:59:27.593Z,101996.56
2022-12-03T15:01:55.734Z,101988.94
2022-12-03T15:04:22.847Z,101997.63
2022-12-03T15:06:49.733Z,101997.63
2022-12-03T15:09:16.937Z,101998.00
2022-12-03T15:27:46.764Z,101998.97
2022-12-03T15:30:13.766Z,102004.50
2022-12-03T15:32:40.578Z,102015.75
2022-12-03T15:35:08.031Z,102011.59
2022-12-03T15:37:34.801Z,102014.31
2022-12-03T15:40:01.928Z,102015.00
2022-12-03T15:42:29.824Z,102023.28
2022-12-03T15:44:56.659Z,102023.03
2022-12-03T15:47:23.531Z,102019.22
2022-12-03T15:49:50.383Z,102017.78
2022-12-03T15:52:17.296Z,102018.16
2022-12-03T15:54:44.356Z,102015.91
2022-12-03T15:57:11.514Z,102019.91
2022-12-03T15:59:38.962Z,102023.91
2022-12-03T16:02:06.075Z,102021.69
2022-12-03T16:04:33.090Z,102028.88
2022-12-03T16:06:59.997Z,102029.28
2022-12-03T16:09:27.869Z,102027.59
2022-12-03T16:11:54.919Z,102025.25
2022-12-03T16:14:21.742Z,102026.03
2022-12-03T16:16:48.633Z,102041.19
2022-12-03T16:19:15.472Z,102041.19
2022-12-03T16:21:42.291Z,102035.41
2022-12-03T16:24:09.279Z,102036.00
2022-12-03T16:26:36.242Z,102043.03
2022-12-03T16:29:03.180Z,102044.94
2022-12-03T16:31:30.266Z,102043.81
2022-12-03T16:33:57.198Z,102042.81
2022-12-03T16:36:24.032Z,102045.25
2022-12-03T16:38:50.907Z,102044.50
2022-12-03T16:41:18.565Z,102047.78
2022-12-03T16:43:48.438Z,102045.50
2022-12-03T16:46:15.560Z,102042.53
2022-12-03T16:48:43.098Z,102045.59
2022-12-03T16:51:10.688Z,102046.63
2022-12-03T16:53:38.234Z,102050.03
2022-12-03T16:56:05.269Z,102056.44
2022-12-03T16:58:32.173Z,102058.94
2022-12-03T17:00:59.085Z,102064.91
2022-12-03T17:03:32.076Z,102069.41
2022-12-03T17:06:00.874Z,102058.16
2022-12-03T17:08:27.986Z,102058.38
2022-12-03T17:10:54.949Z,102061.84
2022-12-03T17:13:23.322Z,102069.47
2022-12-03T17:15:51.150Z,102061.16
2022-12-03T17:18:18.097Z,102063.41
2022-12-03T17:20:44.998Z,102064.25
2022-12-03T17:23:12.723Z,102071.59
2022-12-03T17:25:39.584Z,102084.88
2022-12-03T17:28:06.443Z,102082.59
2022-12-03T17:30:33.454Z,102084.84
2022-12-03T17:33:01.296Z,102079.16
2022-12-03T17:35:28.680Z,102071.81
2022-12-03T17:37:55.614Z,102086.63
2022-12-03T17:40:22.594Z,102080.94
2022-12-03T17:42:49.561Z,102085.88
2022-12-03T17:45:16.452Z,102085.44
2022-12-03T17:47:43.288Z,102084.81
2022-12-03T17:50:10.547Z,102088.16
2022-12-03T17:52:37.454Z,102093.78
2022-12-03T17:55:16.271Z,102099.19
2022-12-03T17:57:44.885Z,102102.16
2022-12-03T18:00:12.461Z,102108.53
2022-12-03T18:02:39.431Z,102106.16
2022-12-03T18:05:06.735Z,102110.41
2022-12-03T18:07:34.074Z,102107.69
2022-12-03T18:10:04.130Z,102106.06
2022-12-03T18:12:34.250Z,102115.03
2022-12-03T18:15:01.181Z,102111.50
2022-12-03T18:17:28.000Z,102115.66
2022-12-03T18:19:55.104Z,102107.47
2022-12-03T18:22:22.086Z,102118.09
2022-12-03T18:24:52.010Z,102117.53
2022-12-03T18:27:21.326Z,102111.25
2022-12-03T18:29:48.649Z,102125.88
2022-12-03T18:32:28.682Z,102118.97
2022-12-03T18:34:57.953Z,102122.41
2022-12-03T18:37:27.944Z,102117.44
2022-12-03T18:39:55.675Z,102125.25
2022-12-03T18:42:23.847Z,102127.41
2022-12-03T18:44:54.131Z,102129.16
2022-12-03T18:47:24.134Z,102136.47
2022-12-03T18:49:51.500Z,102121.91
2022-12-03T18:52:21.794Z,102128.66
2022-12-03T18:54:49.383Z,102131.47
2022-12-03T18:57:17.385Z,102136.81
2022-12-03T18:59:44.450Z,102134.94
2022-12-03T19:02:38.381Z,102136.59
2022-12-03T19:05:04.141Z,102126.69
2022-12-03T19:07:31.087Z,102128.94
2022-12-03T19:09:57.956Z,102130.69
2022-12-03T19:12:24.886Z,102128.56
2022-12-03T19:14:51.787Z,102127.72
2022-12-03T19:17:18.694Z,102130.31
2022-12-03T19:19:46.596Z,102134.84
2022-12-03T19:22:13.534Z,102132.50
2022-12-03T19:24:40.315Z,102133.31
2022-12-03T19:27:07.230Z,102133.19
2022-12-03T19:29:34.086Z,102130.13
2022-12-03T19:32:01.127Z,102137.47
2022-12-03T19:34:28.042Z,102136.84
2022-12-03T19:36:54.889Z,102135.44
2022-12-03T19:39:21.810Z,102133.44
2022-12-03T19:41:48.762Z,102135.47
2022-12-03T19:44:17.245Z,102135.09
2022-12-03T19:46:44.627Z,102136.84
2022-12-03T19:49:12.061Z,102134.97
2022-12-03T19:51:38.971Z,102136.50
2022-12-03T19:54:07.633Z,102138.53
2022-12-03T19:56:35.328Z,102145.66
2022-12-03T19:59:02.448Z,102142.09
2022-12-03T20:01:32.201Z,102135.09
2022-12-03T20:04:01.015Z,102138.78
2022-12-03T20:06:30.389Z,102139.00
2022-12-03T20:08:59.578Z,102138.53
2022-12-03T20:11:29.516Z,102146.47
2022-12-03T20:14:02.864Z,102136.78
2022-12-03T20:16:30.420Z,102138.53
2022-12-03T20:18:59.813Z,102143.78
2022-12-03T20:21:28.615Z,102140.00
2022-12-03T20:23:55.501Z,102153.50
2022-12-03T20:26:23.242Z,102148.97
2022-12-03T20:28:50.767Z,102144.09
2022-12-03T20:31:20.617Z,102142.59
2022-12-03T20:33:50.233Z,102141.63
2022-12-03T20:36:19.188Z,102148.94
2022-12-03T20:38:46.147Z,102149.28
2022-12-03T20:41:15.977Z,102143.09
2022-12-03T20:43:43.065Z,102143.59
2022-12-03T20:46:15.520Z,102148.56
2022-12-03T20:48:43.967Z,102143.66
2022-12-03T20:51:14.133Z,102139.84
2022-12-03T20:53:41.769Z,102150.63
2022-12-03T20:56:09.434Z,102140.16
2022-12-03T20:58:36.653Z,102132.34
2022-12-03T21:01:16.206Z,102136.38
2022-12-03T21:03:44.668Z,102130.56
2022-12-03T21:06:12.790Z,102141.13
2022-12-03T21:08:41.862Z,102131.44
2022-12-03T21:11:15.398Z,102139.03
2022-12-03T21:13:43.921Z,102130.03
2022-12-03T21:16:18.366Z,102129.16
2022-12-03T21:18:45.979Z,102138.94
2022-12-03T21:21:15.015Z,102146.25
2022-12-03T21:23:42.226Z,102135.81
2022-12-03T21:26:17.122Z,102140.66
2022-12-03T21:28:45.543Z,102143.91
2022-12-03T21:31:15.111Z,102147.69
2022-12-03T21:33:42.711Z,102148.53
2022-12-03T21:36:10.363Z,102148.59
2022-12-03T21:38:38.235Z,102145.47
2022-12-03T21:41:05.766Z,102143.78
2022-12-03T21:43:32.696Z,102145.00
2022-12-03T21:46:00.327Z,102143.66
2022-12-03T21:48:27.224Z,102142.41
2022-12-03T21:51:06.716Z,102139.63
2022-12-03T21:53:40.456Z,102142.78
2022-12-03T21:56:16.135Z,102142.03
2022-12-03T21:58:44.120Z,102134.94
2022-12-03T22:01:23.272Z,102142.41
2022-12-03T22:03:50.764Z,102138.16
2022-12-03T22:06:18.382Z,102148.47
2022-12-03T22:08:45.792Z,102133.03
2022-12-03T22:11:21.849Z,102137.56
2022-12-03T22:13:49.507Z,102133.28
2022-12-03T22:16:20.274Z,102136.81
2022-12-03T22:18:47.634Z,102133.41
2022-12-03T22:21:17.361Z,102128.56
2022-12-03T22:23:44.300Z,102124.97
2022-12-03T22:26:13.217Z,102132.16
2022-12-03T22:28:43.490Z,102136.06
2022-12-03T22:31:14.053Z,102132.63
2022-12-03T22:33:41.287Z,102131.03
2022-12-03T22:36:18.014Z,102123.81
2022-12-03T22:38:47.705Z,102135.34
2022-12-03T22:41:15.233Z,102127.75
2022-12-03T22:43:42.163Z,102136.53
2022-12-03T22:46:12.987Z,102139.06
2022-12-03T22:48:41.915Z,102132.09
2022-12-03T22:51:19.093Z,102131.31
2022-12-03T22:53:46.467Z,102131.09
2022-12-03T22:56:13.564Z,102134.88
2022-12-03T22:58:41.305Z,102140.38
2022-12-03T23:01:08.310Z,102143.78
2022-12-03T23:03:36.238Z,102149.69
2022-12-03T23:06:10.088Z,102140.69
2022-12-03T23:08:36.980Z,102141.47
2022-12-03T23:11:04.746Z,102137.44
2022-12-03T23:13:31.736Z,102125.66
2022-12-03T23:15:58.564Z,102133.28
2022-12-03T23:18:25.546Z,102129.56
2022-12-03T23:20:54.064Z,102135.50
2022-12-03T23:23:22.147Z,102128.53
2022-12-03T23:25:59.418Z,102116.69
2022-12-03T23:28:28.298Z,102115.75
2022-12-03T23:30:55.814Z,102114.56
2022-12-03T23:33:23.205Z,102118.22
2022-12-03T23:35:50.084Z,102109.56
2022-12-03T23:38:18.530Z,102105.47
2022-12-03T23:40:48.538Z,102104.72
2022-12-03T23:43:15.976Z,102103.91
2022-12-03T23:45:42.836Z,102100.44
2022-12-03T23:48:13.054Z,102106.66
2022-12-03T23:50:41.387Z,102101.66
2022-12-03T23:53:10.886Z,102107.13
2022-12-03T23:55:40.950Z,102094.75
2022-12-03T23:58:10.136Z,102088.69
